createdAt,value
2022-11-06T00:00:44.057Z,99435.41
2022-11-06T00:03:10.841Z,99431.78
2022-11-06T00:05:42.035Z,99428.16
2022-11-06T00:08:08.512Z,99426.91
2022-11-06T00:10:35.076Z,99425.13
2022-11-06T00:13:01.780Z,99434.00
2022-11-06T00:15:28.400Z,99444.28
2022-11-06T00:17:55.014Z,99431.22
2022-11-06T00:20:21.518Z,99427.22
2022-11-06T00:22:47.910Z,99418.88
2022-11-06T00:25:14.557Z,99419.84
2022-11-06T00:27:41.273Z,99408.03
2022-11-06T00:30:09.094Z,99410.94
2022-11-06T00:32:35.570Z,99409.84
2022-11-06T00:35:01.986Z,99405.09
2022-11-06T00:37:29.390Z,99404.66
2022-11-06T00:39:55.896Z,99400.50
2022-11-06T00:42:22.310Z,99410.09
2022-11-06T00:44:48.663Z,99411.63
2022-11-06T00:47:15.075Z,99410.91
2022-11-06T00:49:41.425Z,99417.47
2022-11-06T00:52:08.028Z,99416.75
2022-11-06T00:54:34.677Z,99418.72
2022-11-06T00:57:01.214Z,99407.72
2022-11-06T00:59:27.630Z,99411.06
2022-11-06T01:01:54.202Z,99411.91
2022-11-06T01:04:22.789Z,99418.28
2022-11-06T01:06:54.606Z,99407.16
2022-11-06T01:09:23.218Z,99412.03
2022-11-06T01:12:12.456Z,99423.84
2022-11-06T01:14:40.405Z,99417.88
2022-11-06T01:17:06.996Z,99412.31
2022-11-06T01:19:33.421Z,99405.00
2022-11-06T01:21:59.786Z,99407.91
2022-11-06T01:24:28.426Z,99411.13
2022-11-06T01:29:41.661Z,99415.03
2022-11-06T01:32:08.440Z,99410.69
2022-11-06T01:34:34.778Z,99403.63
2022-11-06T01:37:01.421Z,99406.13
2022-11-06T01:39:27.905Z,99404.31
2022-11-06T01:41:54.906Z,99414.03
2022-11-06T01:44:33.444Z,99418.50
2022-11-06T01:47:01.584Z,99424.47
2022-11-06T01:49:30.683Z,99424.31
2022-11-06T01:52:01.464Z,99417.22
2022-11-06T01:54:29.871Z,99425.72
2022-11-06T01:56:59.682Z,99426.81
2022-11-06T01:59:30.021Z,99430.44
2022-11-06T02:01:56.578Z,99430.72
2022-11-06T02:04:34.465Z,99422.38
2022-11-06T02:07:01.099Z,99435.28
2022-11-06T02:09:30.080Z,99435.16
2022-11-06T02:12:08.041Z,99427.06
2022-11-06T02:15:07.138Z,99425.44
2022-11-06T02:18:01.034Z,99420.41
2022-11-06T02:20:42.246Z,99411.22
2022-11-06T02:23:45.856Z,99414.84
2022-11-06T02:26:49.733Z,99406.22
2022-11-06T02:29:22.308Z,99401.25
2022-11-06T02:31:54.044Z,99406.50
2022-11-06T02:34:25.833Z,99411.78
2022-11-06T02:36:59.963Z,99402.56
2022-11-06T02:39:29.132Z,99407.84
2022-11-06T02:41:58.548Z,99399.25
2022-11-06T02:44:29.343Z,99401.47
2022-11-06T02:46:59.818Z,99401.06
2022-11-06T02:49:32.812Z,99394.66
2022-11-06T02:52:07.795Z,99389.09
2022-11-06T02:54:37.991Z,99388.44
2022-11-06T02:57:08.337Z,99380.06
2022-11-06T02:59:45.361Z,99382.44
2022-11-06T03:02:18.036Z,99371.19
2022-11-06T03:05:02.157Z,99371.06
2022-11-06T03:07:39.521Z,99367.31
2022-11-06T03:10:07.391Z,99362.69
2022-11-06T03:12:49.252Z,99348.41
2022-11-06T03:15:35.910Z,99345.63
2022-11-06T03:18:20.782Z,99348.09
2022-11-06T03:20:57.968Z,99343.38
2022-11-06T03:23:34.524Z,99342.69
2022-11-06T03:26:17.697Z,99339.72
2022-11-06T03:29:21.893Z,99343.63
2022-11-06T03:32:05.593Z,99341.72
2022-11-06T03:34:40.678Z,99335.88
2022-11-06T03:37:18.625Z,99331.28
2022-11-06T03:39:53.019Z,99337.81
2022-11-06T03:42:27.543Z,99344.38
2022-11-06T03:45:02.249Z,99339.91
2022-11-06T03:47:36.723Z,99340.97
2022-11-06T03:50:12.008Z,99335.00
2022-11-06T03:52:46.464Z,99328.88
2022-11-06T03:55:18.286Z,99328.59
2022-11-06T03:57:53.961Z,99320.41
2022-11-06T04:00:21.056Z,99312.59
2022-11-06T04:02:55.488Z,99301.66
2022-11-06T04:05:24.676Z,99292.63
2022-11-06T04:07:55.643Z,99297.53
2022-11-06T04:10:21.918Z,99302.41
2022-11-06T04:12:50.823Z,99306.75
2022-11-06T04:15:19.500Z,99312.41
2022-11-06T04:17:45.892Z,99305.72
2022-11-06T04:20:18.749Z,99295.97
2022-11-06T04:23:05.993Z,99281.22
2022-11-06T04:25:53.561Z,99287.63
2022-11-06T04:28:41.941Z,99286.50
2022-11-06T04:31:25.711Z,99268.47
2022-11-06T04:34:08.802Z,99264.72
2022-11-06T04:36:35.116Z,99260.69
2022-11-06T04:39:06.724Z,99253.63
2022-11-06T04:41:51.450Z,99242.63
2022-11-06T04:44:29.877Z,99239.19
2022-11-06T04:47:01.623Z,99235.19
2022-11-06T04:49:31.795Z,99238.34
2022-11-06T04:52:00.176Z,99229.03
2022-11-06T04:54:26.586Z,99222.94
2022-11-06T04:56:58.640Z,99216.84
2022-11-06T04:59:25.024Z,99222.28
2022-11-06T05:01:51.403Z,99229.59
2022-11-06T05:04:18.030Z,99215.97
2022-11-06T05:06:44.472Z,99221.22
2022-11-06T05:09:10.902Z,99214.78
2022-11-06T05:11:37.300Z,99220.25
2022-11-06T05:14:04.274Z,99214.34
2022-11-06T05:16:30.809Z,99212.88
2022-11-06T05:18:57.343Z,99220.25
2022-11-06T05:21:23.921Z,99232.53
2022-11-06T05:23:50.532Z,99248.75
2022-11-06T05:26:17.261Z,99252.03
2022-11-06T05:28:43.953Z,99253.88
2022-11-06T05:31:11.522Z,99257.59
2022-11-06T05:33:37.964Z,99264.97
2022-11-06T05:36:06.059Z,99267.59
2022-11-06T05:38:33.020Z,99263.16
2022-11-06T05:40:59.535Z,99268.28
2022-11-06T05:43:26.472Z,99262.63
2022-11-06T05:45:53.221Z,99260.41
2022-11-06T05:48:19.642Z,99257.09
2022-11-06T05:50:46.299Z,99258.63
2022-11-06T05:53:12.895Z,99252.66
2022-11-06T05:55:39.368Z,99241.84
2022-11-06T05:58:07.318Z,99229.94
2022-11-06T06:00:33.990Z,99235.47
2022-11-06T06:03:02.184Z,99239.50
2022-11-06T06:05:28.553Z,99232.16
2022-11-06T06:07:54.868Z,99238.97
2022-11-06T06:10:21.317Z,99252.59
2022-11-06T06:12:50.036Z,99259.13
2022-11-06T06:15:16.598Z,99264.81
2022-11-06T06:17:43.302Z,99258.00
2022-11-06T06:20:10.460Z,99275.63
2022-11-06T06:22:36.904Z,99268.53
2022-11-06T06:25:03.821Z,99259.69
2022-11-06T06:27:30.259Z,99266.47
2022-11-06T06:29:57.006Z,99271.88
2022-11-06T06:32:23.545Z,99279.06
2022-11-06T06:34:49.974Z,99274.91
2022-11-06T06:37:19.907Z,99273.53
2022-11-06T06:39:46.600Z,99272.00
2022-11-06T06:42:12.991Z,99272.72
2022-11-06T06:44:39.655Z,99268.53
2022-11-06T06:47:06.360Z,99260.03
2022-11-06T06:49:32.709Z,99254.34
2022-11-06T06:51:59.088Z,99258.38
2022-11-06T06:54:25.755Z,99270.25
2022-11-06T06:56:52.268Z,99276.59
2022-11-06T06:59:18.629Z,99267.31
2022-11-06T07:01:45.400Z,99260.56
2022-11-06T07:04:11.935Z,99263.09
2022-11-06T07:06:38.605Z,99263.38
2022-11-06T07:09:05.020Z,99259.31
2022-11-06T07:11:31.435Z,99247.31
2022-11-06T07:13:57.777Z,99243.00
2022-11-06T07:16:24.221Z,99242.38
2022-11-06T07:18:50.936Z,99228.91
2022-11-06T07:21:17.265Z,99223.81
2022-11-06T07:23:43.690Z,99215.72
2022-11-06T07:26:10.157Z,99218.75
2022-11-06T07:28:36.816Z,99215.06
2022-11-06T07:31:05.324Z,99210.50
2022-11-06T07:33:31.739Z,99198.84
2022-11-06T07:36:06.637Z,99191.63
2022-11-06T07:38:34.999Z,99186.19
2022-11-06T07:41:03.652Z,99179.78
2022-11-06T07:43:30.209Z,99174.09
2022-11-06T07:46:01.126Z,99169.09
2022-11-06T07:48:28.012Z,99174.44
2022-11-06T07:50:54.826Z,99164.56
2022-11-06T07:53:21.262Z,99149.13
2022-11-06T07:55:49.288Z,99146.78
2022-11-06T07:58:16.124Z,99144.59
2022-11-06T08:00:49.358Z,99137.53
2022-11-06T08:03:16.419Z,99117.53
2022-11-06T08:05:43.170Z,99110.41
2022-11-06T08:08:10.022Z,99100.28
2022-11-06T08:10:37.382Z,99089.03
2022-11-06T08:13:03.878Z,99078.94
2022-11-06T08:15:30.248Z,99080.44
2022-11-06T08:17:59.388Z,99077.44
2022-11-06T08:20:26.098Z,99070.78
2022-11-06T08:22:52.467Z,99072.75
2022-11-06T08:25:18.932Z,99093.53
2022-11-06T08:27:45.321Z,99121.22
2022-11-06T08:30:12.359Z,99177.53
2022-11-06T08:32:38.686Z,99212.50
2022-11-06T08:35:05.786Z,99222.06
2022-11-06T08:37:32.429Z,99168.25
2022-11-06T08:39:59.234Z,99150.69
2022-11-06T08:42:25.591Z,98826.72
2022-11-06T08:44:52.312Z,98830.81
2022-11-06T08:47:20.079Z,98831.66
2022-11-06T08:49:46.478Z,98834.19
2022-11-06T08:52:12.823Z,98834.53
2022-11-06T08:54:39.189Z,98843.31
2022-11-06T08:57:05.752Z,98833.69
2022-11-06T08:59:32.234Z,98827.22
2022-11-06T09:01:58.836Z,98823.25
2022-11-06T09:04:25.250Z,98824.59
2022-11-06T09:06:51.657Z,98836.16
2022-11-06T09:09:18.062Z,98827.88
2022-11-06T09:11:44.654Z,98843.47
2022-11-06T09:14:10.996Z,98835.53
2022-11-06T09:16:37.391Z,98837.19
2022-11-06T09:19:03.901Z,98830.81
2022-11-06T09:21:30.283Z,98831.34
2022-11-06T09:23:56.886Z,98819.06
2022-11-06T09:26:23.219Z,98822.91
2022-11-06T09:28:49.760Z,98816.56
2022-11-06T09:31:16.432Z,98823.19
2022-11-06T09:33:42.948Z,98807.44
2022-11-06T09:36:10.226Z,98817.13
2022-11-06T09:38:36.598Z,98811.63
2022-11-06T09:41:03.817Z,98809.25
2022-11-06T09:46:44.277Z,98815.75
2022-11-06T09:49:26.000Z,98824.19
2022-11-06T09:52:07.251Z,98831.44
2022-11-06T09:54:45.027Z,98828.81
2022-11-06T09:57:19.557Z,98823.72
2022-11-06T09:59:47.729Z,98817.59
2022-11-06T10:02:41.016Z,98800.66
2022-11-06T10:05:18.055Z,98781.13
2022-11-06T10:07:46.177Z,98781.84
2022-11-06T10:10:18.105Z,98791.31
2022-11-06T10:12:47.346Z,98792.59
2022-11-06T10:15:23.171Z,98784.91
2022-11-06T10:18:31.153Z,98793.25
2022-11-06T10:21:09.572Z,98784.69
2022-11-06T10:23:56.894Z,98775.28
2022-11-06T10:26:41.615Z,98771.47
2022-11-06T10:29:17.133Z,98765.19
2022-11-06T10:31:46.438Z,98760.50
2022-11-06T10:34:21.958Z,98749.31
2022-11-06T10:37:18.283Z,98731.75
2022-11-06T10:39:46.315Z,98732.06
2022-11-06T10:42:17.174Z,98726.69
2022-11-06T10:44:53.037Z,98715.66
2022-11-06T10:47:22.240Z,98700.47
2022-11-06T10:49:58.307Z,98689.91
2022-11-06T10:53:06.239Z,98675.13
2022-11-06T10:55:38.497Z,98679.84
2022-11-06T10:58:08.667Z,98671.94
2022-11-06T11:00:35.667Z,98657.31
2022-11-06T11:03:04.883Z,98655.06
2022-11-06T11:05:38.910Z,98650.03
2022-11-06T11:08:06.043Z,98634.03
2022-11-06T11:10:35.061Z,98624.31
2022-11-06T11:13:08.476Z,98623.66
2022-11-06T11:15:44.703Z,98618.41
2022-11-06T11:18:26.125Z,98603.72
2022-11-06T11:21:05.634Z,98597.50
2022-11-06T11:23:32.258Z,98586.25
2022-11-06T11:26:18.527Z,98580.63
2022-11-06T11:28:51.273Z,98576.59
2022-11-06T11:31:18.404Z,98567.97
2022-11-06T11:33:52.660Z,98563.03
2022-11-06T11:36:19.321Z,98545.31
2022-11-06T11:38:46.109Z,98534.50
2022-11-06T11:41:24.603Z,98529.31
2022-11-06T11:44:13.863Z,98533.75
2022-11-06T11:46:51.301Z,98522.72
2022-11-06T11:49:34.802Z,98516.50
2022-11-06T11:52:04.175Z,98520.38
2022-11-06T11:54:35.515Z,98521.00
2022-11-06T11:57:21.283Z,98518.44
2022-11-06T11:59:57.530Z,98515.97
2022-11-06T12:02:56.635Z,98500.56
2022-11-06T12:05:35.347Z,98488.13
2022-11-06T12:08:02.021Z,98482.78
2022-11-06T12:10:38.812Z,98468.91
2022-11-06T12:13:13.370Z,98464.06
2022-11-06T12:15:45.816Z,98456.16
2022-11-06T12:18:19.061Z,98469.72
2022-11-06T12:20:54.859Z,98467.66
2022-11-06T12:23:36.496Z,98460.69
2022-11-06T12:26:15.622Z,98468.84
2022-11-06T12:28:46.163Z,98459.38
2022-11-06T12:31:35.660Z,98463.28
2022-11-06T12:34:10.870Z,98450.75
2022-11-06T12:36:46.259Z,98454.47
2022-11-06T12:39:19.856Z,98464.28
2022-11-06T12:41:50.856Z,98455.63
2022-11-06T12:44:17.386Z,98460.22
2022-11-06T12:47:00.159Z,98456.16
2022-11-06T12:49:46.242Z,98443.63
2022-11-06T12:52:33.281Z,98444.22
2022-11-06T12:55:29.089Z,98435.19
2022-11-06T12:57:58.427Z,98434.13
2022-11-06T13:00:35.628Z,98430.25
2022-11-06T13:03:19.449Z,98427.81
2022-11-06T13:05:54.868Z,98422.84
2022-11-06T13:08:39.190Z,98424.69
2022-11-06T13:11:31.613Z,98410.75
2022-11-06T13:14:15.166Z,98408.91
2022-11-06T13:17:06.442Z,98401.31
2022-11-06T13:19:57.734Z,98408.69
2022-11-06T13:22:39.305Z,98412.19
2022-11-06T13:25:21.779Z,98403.34
2022-11-06T13:27:53.830Z,98409.50
2022-11-06T13:30:22.457Z,98407.69
2022-11-06T13:33:12.215Z,98396.59
2022-11-06T13:35:42.274Z,98386.94
2022-11-06T13:38:15.699Z,98386.72
2022-11-06T13:40:45.245Z,98382.63
2022-11-06T13:43:31.248Z,98378.91
2022-11-06T13:46:06.792Z,98389.59
2022-11-06T13:48:55.992Z,98377.91
2022-11-06T13:51:51.752Z,98388.16
2022-11-06T13:54:30.950Z,98385.28
2022-11-06T13:57:35.146Z,98387.53
2022-11-06T14:00:29.266Z,98384.47
2022-11-06T14:03:18.600Z,98392.25
2022-11-06T14:06:05.314Z,98383.34
2022-11-06T14:08:46.870Z,98380.50
2022-11-06T14:11:21.119Z,98383.66
2022-11-06T14:14:00.744Z,98382.06
2022-11-06T14:17:08.435Z,98383.72
2022-11-06T14:19:35.437Z,98389.84
2022-11-06T14:22:30.255Z,98389.75
2022-11-06T14:25:01.646Z,98389.94
2022-11-06T14:27:28.925Z,98394.84
2022-11-06T14:31:05.616Z,98392.16
2022-11-06T14:33:40.225Z,98392.81
2022-11-06T14:36:27.103Z,98398.84
2022-11-06T14:38:54.888Z,98405.19
2022-11-06T14:41:36.633Z,98405.56
2022-11-06T14:44:26.552Z,98417.72
2022-11-06T14:46:59.580Z,98423.75
2022-11-06T14:49:41.052Z,98433.47
2022-11-06T14:52:14.780Z,98425.63
2022-11-06T14:54:51.803Z,98410.25
2022-11-06T14:57:35.537Z,98410.59
2022-11-06T15:00:02.158Z,98404.75
2022-11-06T15:02:30.939Z,98399.84
2022-11-06T15:05:05.505Z,98394.41
2022-11-06T15:08:09.338Z,98376.03
2022-11-06T15:10:41.778Z,98378.50
2022-11-06T15:13:17.885Z,98372.31
2022-11-06T15:15:48.054Z,98364.59
2022-11-06T15:18:19.039Z,98374.72
2022-11-06T15:20:51.858Z,98380.91
2022-11-06T15:23:27.045Z,98390.47
2022-11-06T15:26:27.397Z,98387.31
2022-11-06T15:29:16.641Z,98394.28
2022-11-06T15:31:53.527Z,98395.03
2022-11-06T15:34:31.412Z,98396.38
2022-11-06T15:37:14.388Z,98391.81
2022-11-06T15:40:01.848Z,98379.56
2022-11-06T15:42:31.287Z,98392.41
2022-11-06T15:45:22.038Z,98381.13
2022-11-06T15:47:57.413Z,98379.97
2022-11-06T15:50:34.882Z,98384.28
2022-11-06T15:53:13.919Z,98389.97
2022-11-06T15:55:50.738Z,98389.38
2022-11-06T15:58:17.276Z,98381.69
2022-11-06T16:00:44.243Z,98389.59
2022-11-06T16:03:15.589Z,98397.56
2022-11-06T16:05:43.128Z,98381.16
2022-11-06T16:08:15.559Z,98389.84
2022-11-06T16:10:43.975Z,98395.56
2022-11-06T16:13:16.817Z,98394.59
2022-11-06T16:15:43.514Z,98388.41
2022-11-06T16:18:17.822Z,98385.03
2022-11-06T16:20:47.219Z,98389.38
2022-11-06T16:23:18.718Z,98387.31
2022-11-06T16:25:45.569Z,98391.66
2022-11-06T16:28:22.996Z,98384.22
2022-11-06T16:30:49.894Z,98397.63
2022-11-06T16:33:23.803Z,98387.53
2022-11-06T16:35:55.364Z,98391.94
2022-11-06T16:38:41.168Z,98378.91
2022-11-06T16:41:09.557Z,98383.56
2022-11-06T16:43:35.934Z,98391.81
2022-11-06T16:46:04.907Z,98392.88
2022-11-06T16:48:33.899Z,98394.66
2022-11-06T16:51:09.693Z,98397.88
2022-11-06T16:53:50.973Z,98403.78
2022-11-06T16:56:23.728Z,98398.53
2022-11-06T16:58:57.735Z,98399.75
2022-11-06T17:01:24.639Z,98388.84
2022-11-06T17:03:58.593Z,98384.53
2022-11-06T17:06:27.925Z,98379.94
2022-11-06T17:09:09.321Z,98375.81
2022-11-06T17:11:36.331Z,98373.22
2022-11-06T17:14:17.358Z,98390.34
2022-11-06T17:16:47.984Z,98375.00
2022-11-06T17:19:14.519Z,98378.09
2022-11-06T17:21:41.180Z,98375.97
2022-11-06T17:24:35.448Z,98378.84
2022-11-06T17:26:54.262Z,98374.72
2022-11-06T17:29:22.386Z,98372.28
2022-11-06T17:31:48.986Z,98376.75
2022-11-06T17:34:15.620Z,98382.06
2022-11-06T17:36:42.206Z,98389.41
2022-11-06T17:39:08.629Z,98388.97
2022-11-06T17:41:34.984Z,98396.47
2022-11-06T17:44:13.253Z,98403.00
2022-11-06T17:46:42.211Z,98400.72
2022-11-06T17:49:14.277Z,98405.03
2022-11-06T17:51:43.506Z,98416.09
2022-11-06T17:54:11.256Z,98428.56
2022-11-06T17:56:38.454Z,98419.06
2022-11-06T17:59:05.535Z,98404.22
2022-11-06T18:01:32.706Z,98391.03
2022-11-06T18:03:59.622Z,98419.91
2022-11-06T18:06:26.573Z,98425.31
2022-11-06T18:08:57.264Z,98431.25
2022-11-06T18:11:23.985Z,98433.47
2022-11-06T18:13:51.011Z,98424.59
2022-11-06T18:16:24.067Z,98425.94
2022-11-06T18:18:50.715Z,98438.41
2022-11-06T18:21:17.095Z,98452.81
2022-11-06T18:23:43.561Z,98454.00
2022-11-06T18:26:10.317Z,98452.88
2022-11-06T18:28:36.745Z,98451.63
2022-11-06T18:31:03.171Z,98449.31
2022-11-06T18:33:30.114Z,98458.31
2022-11-06T18:36:04.373Z,98458.31
2022-11-06T18:38:30.813Z,98455.66
2022-11-06T18:40:57.439Z,98459.34
2022-11-06T18:43:23.793Z,98449.06
2022-11-06T18:45:50.480Z,98464.34
2022-11-06T18:48:20.950Z,98455.75
2022-11-06T18:50:48.171Z,98455.13
2022-11-06T18:53:14.584Z,98463.25
2022-11-06T18:55:45.147Z,98464.28
2022-11-06T18:58:12.157Z,98469.59
2022-11-06T19:00:38.828Z,98457.56
2022-11-06T19:03:05.408Z,98480.47
2022-11-06T19:05:31.987Z,98475.81
2022-11-06T19:08:00.519Z,98479.28
2022-11-06T19:10:27.188Z,98485.25
2022-11-06T19:12:56.211Z,98481.56
2022-11-06T19:15:24.766Z,98491.00
2022-11-06T19:17:53.298Z,98491.84
2022-11-06T19:20:19.763Z,98495.50
2022-11-06T19:22:50.147Z,98489.19
2022-11-06T19:25:16.718Z,98498.16
2022-11-06T19:27:43.109Z,98491.47
2022-11-06T19:30:10.016Z,98485.97
2022-11-06T19:32:36.640Z,98502.28
2022-11-06T19:35:03.678Z,98513.00
2022-11-06T19:37:30.080Z,98531.06
2022-11-06T19:39:57.599Z,98534.88
2022-11-06T19:42:26.630Z,98527.75
2022-11-06T19:44:53.057Z,98537.09
2022-11-06T19:47:19.464Z,98533.41
2022-11-06T19:49:47.220Z,98524.88
2022-11-06T19:52:42.328Z,98533.72
2022-11-06T19:55:24.585Z,98541.13
2022-11-06T19:57:46.434Z,98544.69
2022-11-06T20:00:13.392Z,98560.09
2022-11-06T20:02:39.920Z,98561.09
2022-11-06T20:05:06.637Z,98562.75
2022-11-06T20:07:33.119Z,98562.75
2022-11-06T20:09:59.595Z,98572.38
2022-11-06T20:12:26.014Z,98567.06
2022-11-06T20:14:52.430Z,98572.38
2022-11-06T20:17:18.870Z,98568.06
2022-11-06T20:19:45.240Z,98574.19
2022-11-06T20:22:11.572Z,98576.19
2022-11-06T20:24:37.905Z,98584.00
2022-11-06T20:27:10.183Z,98575.22
2022-11-06T20:29:37.626Z,98579.53
2022-11-06T20:32:04.109Z,98582.81
2022-11-06T20:34:30.542Z,98573.84
2022-11-06T20:36:56.834Z,98575.84
2022-11-06T20:39:23.192Z,98571.94
2022-11-06T20:41:49.873Z,98573.41
2022-11-06T20:44:16.400Z,98562.78
2022-11-06T20:46:44.309Z,98563.13
2022-11-06T20:49:14.143Z,98554.44
2022-11-06T20:52:11.664Z,98539.56
2022-11-06T20:54:27.321Z,98547.16
2022-11-06T20:56:53.961Z,98548.91
2022-11-06T20:59:20.562Z,98547.25
2022-11-06T21:01:47.224Z,98544.28
2022-11-06T21:04:14.136Z,98549.69
2022-11-06T21:06:40.728Z,98553.72
2022-11-06T21:09:08.228Z,98559.19
2022-11-06T21:11:35.042Z,98549.53
2022-11-06T21:14:01.955Z,98546.63
2022-11-06T21:16:31.137Z,98545.31
2022-11-06T21:18:59.577Z,98555.34
2022-11-06T21:21:28.423Z,98558.81
2022-11-06T21:23:55.826Z,98558.25
2022-11-06T21:26:25.188Z,98551.28
2022-11-06T21:28:51.856Z,98554.59
2022-11-06T21:31:21.311Z,98552.56
2022-11-06T21:33:50.309Z,98562.00
2022-11-06T21:36:25.028Z,98570.19
2022-11-06T21:38:52.880Z,98563.84
2022-11-06T21:41:24.081Z,98559.34
2022-11-06T21:43:50.556Z,98565.31
2022-11-06T21:46:18.556Z,98556.75
2022-11-06T21:48:47.417Z,98546.91
2022-11-06T21:51:23.863Z,98562.63
2022-11-06T21:53:51.162Z,98557.03
2022-11-06T21:56:22.132Z,98557.50
2022-11-06T21:58:53.639Z,98561.91
2022-11-06T22:01:20.947Z,98560.25
2022-11-06T22:03:47.612Z,98563.59
2022-11-06T22:06:16.626Z,98553.06
2022-11-06T22:08:44.844Z,98551.56
2022-11-06T22:11:19.226Z,98563.78
2022-11-06T22:13:47.417Z,98557.13
2022-11-06T22:16:16.169Z,98569.53
2022-11-06T22:18:42.515Z,98569.63
2022-11-06T22:21:13.827Z,98561.19
2022-11-06T22:23:41.012Z,98569.69
2022-11-06T22:26:11.351Z,98571.91
2022-11-06T22:28:38.279Z,98570.44
2022-11-06T22:31:05.276Z,98568.63
2022-11-06T22:33:32.994Z,98581.63
2022-11-06T22:36:07.854Z,98580.16
2022-11-06T22:38:35.313Z,98582.63
2022-11-06T22:41:03.460Z,98588.59
2022-11-06T22:43:30.899Z,98594.47
2022-11-06T22:46:02.544Z,98599.78
2022-11-06T22:48:30.434Z,98598.78
2022-11-06T22:51:01.592Z,98595.09
2022-11-06T22:53:28.084Z,98608.50
2022-11-06T22:55:58.827Z,98606.84
2022-11-06T22:58:26.454Z,98607.13
2022-11-06T23:00:54.296Z,98623.25
2022-11-06T23:03:21.772Z,98624.63
2022-11-06T23:05:48.383Z,98618.28
2022-11-06T23:08:15.744Z,98629.38
2022-11-06T23:10:42.878Z,98630.41
2022-11-06T23:13:10.442Z,98639.28
2022-11-06T23:15:37.513Z,98633.59
2022-11-06T23:18:05.026Z,98639.00
2022-11-06T23:20:32.607Z,98636.78
2022-11-06T23:23:00.172Z,98649.09
2022-11-06T23:25:27.196Z,98639.28
2022-11-06T23:27:53.839Z,98643.19
2022-11-06T23:30:20.499Z,98659.75
2022-11-06T23:32:47.049Z,98654.41
2022-11-06T23:35:16.789Z,98658.72
2022-11-06T23:37:44.397Z,98659.75
2022-11-06T23:40:11.261Z,98666.69
2022-11-06T23:42:37.861Z,98664.03
2022-11-06T23:45:06.701Z,98667.16
2022-11-06T23:47:33.993Z,98663.47
2022-11-06T23:50:00.643Z,98661.97
2022-11-06T23:52:27.417Z,98660.19
2022-11-06T23:54:54.115Z,98657.94
2022-11-06T23:57:21.189Z,98663.53
2022-11-06T23:59:48.233Z,98655.13
